Time;durP1;ratioP1;P1;durP2;ratioP2;P2;SDS_P1;SDS_P2;PMS_P1;PMS_P2;Temp;Humidity;BMP_temperature;BMP_pressure;BME280_temperature;BME280_humidity;BME280_pressure;Samples;Min_cycle;Max_cycle;Signal;HPM_P1;HPM_P2
2022/05/10 00:00:10;;;;;;;4.22;3.25;;;;;;;15.63;66.21;102039.94;5068016;28;19974;-82
2022/05/10 00:02:36;;;;;;;6.82;2.97;;;;;;;15.59;66.13;102026.53;5068280;28;20489;-82
2022/05/10 00:05:03;;;;;;;5.57;3.15;;;;;;;15.63;66.30;102034.69;5070041;28;20054;-82
2022/05/10 00:07:31;;;;;;;4.85;3.38;;;;;;;15.61;66.28;102033.69;5072232;28;20039;-82
2022/05/10 00:09:57;;;;;;;5.82;3.30;;;;;;;15.65;66.08;102030.41;5071521;28;20139;-81
2022/05/10 00:12:23;;;;;;;5.57;3.40;;;;;;;15.63;65.95;102020.63;5069578;28;20593;-81
2022/05/10 00:14:48;;;;;;;5.20;3.10;;;;;;;15.38;65.94;101989.44;5070890;28;20028;-81
2022/05/10 00:17:23;;;;;;;4.80;3.30;;;;;;;15.62;66.06;102026.69;5072684;28;20032;-81
2022/05/10 00:19:50;;;;;;;4.22;3.22;;;;;;;15.60;66.13;102017.81;5072617;28;20509;-82
2022/05/10 00:22:15;;;;;;;4.65;3.30;;;;;;;15.38;66.13;101986.78;5070882;28;20094;-81
2022/05/10 00:24:41;;;;;;;6.50;3.00;;;;;;;15.61;65.81;102017.00;5071780;28;20028;-82
2022/05/10 00:27:07;;;;;;;6.45;3.20;;;;;;;15.55;66.09;102008.75;5071831;28;20040;-82
2022/05/10 00:29:32;;;;;;;5.75;2.78;;;;;;;15.61;65.98;102020.53;5070562;28;20043;-81
2022/05/10 00:31:58;;;;;;;4.47;3.17;;;;;;;15.38;66.01;101982.44;5072629;28;20398;-82
2022/05/10 00:34:28;;;;;;;4.45;3.15;;;;;;;15.58;66.06;102019.47;5072010;28;20106;-81
2022/05/10 00:36:54;;;;;;;4.43;3.30;;;;;;;15.16;65.92;101946.16;5069963;28;20032;-81
2022/05/10 00:39:19;;;;;;;6.25;3.60;;;;;;;15.54;66.00;102012.25;5070880;28;20033;-81
2022/05/10 00:41:58;;;;;;;6.85;3.22;;;;;;;15.54;66.00;102014.88;5072409;28;20033;-81
2022/05/10 00:44:29;;;;;;;4.30;2.97;;;;;;;15.52;65.91;102012.16;5053161;28;20558;-81
2022/05/10 00:47:13;;;;;;;5.45;3.40;;;;;;;15.54;65.93;102009.59;5060798;28;20025;-81
2022/05/10 00:49:42;;;;;;;6.90;3.35;;;;;;;15.44;66.01;101995.91;5072042;28;20035;-81
2022/05/10 00:52:12;;;;;;;4.20;3.15;;;;;;;15.51;65.90;102004.16;5071369;28;20025;-81
2022/05/10 00:55:11;;;;;;;3.88;3.10;;;;;;;15.50;66.08;101995.34;5071601;28;20033;-81
2022/05/10 00:57:47;;;;;;;5.20;3.10;;;;;;;15.41;65.85;101990.50;5044799;28;20043;-81
2022/05/10 01:00:14;;;;;;;4.25;3.15;;;;;;;15.47;65.79;102000.44;5070376;28;20105;-81
2022/05/10 01:02:42;;;;;;;4.63;3.00;;;;;;;15.45;65.63;102005.66;5071036;28;20107;-81
2022/05/10 01:05:15;;;;;;;4.60;2.95;;;;;;;15.44;65.88;101998.56;5071313;28;20116;-81
2022/05/10 01:07:49;;;;;;;5.43;3.00;;;;;;;15.45;65.90;102000.38;5071253;28;20036;-81
2022/05/10 01:10:46;;;;;;;5.25;3.42;;;;;;;15.42;65.90;101992.31;5070694;28;20036;-81
2022/05/10 01:13:28;;;;;;;4.13;2.90;;;;;;;15.41;65.74;101995.78;5070508;28;20036;-81
2022/05/10 01:16:09;;;;;;;4.65;2.90;;;;;;;15.41;65.65;101993.13;5068145;28;20584;-83
2022/05/10 01:18:36;;;;;;;3.88;3.05;;;;;;;15.37;65.87;101988.53;5063317;28;20511;-81
2022/05/10 01:21:11;;;;;;;6.10;3.10;;;;;;;15.40;65.82;101988.69;5070253;28;20167;-81
2022/05/10 01:23:58;;;;;;;3.25;2.67;;;;;;;15.40;66.07;101993.94;5065389;28;20025;-81
2022/05/10 01:26:37;;;;;;;3.58;2.78;;;;;;;15.41;65.84;101992.25;5067822;28;20414;-81
2022/05/10 01:29:06;;;;;;;5.28;3.00;;;;;;;15.40;65.79;101999.22;5057125;28;20032;-81
2022/05/10 01:31:43;;;;;;;5.43;3.28;;;;;;;15.33;65.95;101981.28;5069896;28;20035;-81
2022/05/10 01:34:16;;;;;;;4.60;2.50;;;;;;;15.35;66.04;101986.66;5070069;28;20382;-81
2022/05/10 01:36:56;;;;;;;4.15;2.70;;;;;;;15.37;65.95;101993.78;5069841;28;20044;-81
2022/05/10 01:39:27;;;;;;;3.35;3.00;;;;;;;15.33;65.86;101983.91;5070270;28;20020;-81
2022/05/10 01:41:52;;;;;;;4.88;3.17;;;;;;;15.34;65.86;101987.44;5071155;28;20044;-83
2022/05/10 01:44:18;;;;;;;5.35;2.97;;;;;;;15.35;66.03;101987.53;5070284;28;20143;-82
2022/05/10 01:46:46;;;;;;;4.28;2.97;;;;;;;15.25;65.68;101979.97;5070845;28;20063;-81
2022/05/10 01:49:50;;;;;;;6.68;2.95;;;;;;;15.34;65.96;101996.25;5065661;28;20025;-81
2022/05/10 01:52:16;;;;;;;4.03;2.97;;;;;;;15.34;66.02;101992.72;5069785;28;20037;-81
2022/05/10 01:54:41;;;;;;;4.30;2.70;;;;;;;15.31;66.16;101988.19;5070835;28;20078;-81
2022/05/10 01:57:13;;;;;;;3.97;2.80;;;;;;;15.29;66.09;101983.69;5071750;28;20032;-83
2022/05/10 01:59:45;;;;;;;6.00;2.88;;;;;;;15.11;66.06;101952.88;5069114;28;20064;-81
2022/05/10 02:02:11;;;;;;;5.18;2.90;;;;;;;15.20;65.99;101956.03;5052754;28;20036;-82
2022/05/10 02:04:39;;;;;;;4.10;3.13;;;;;;;15.27;66.13;101981.84;5070543;28;20418;-83
2022/05/10 02:07:14;;;;;;;4.78;2.75;;;;;;;15.31;66.13;101982.03;5052737;28;20033;-82
2022/05/10 02:09:44;;;;;;;3.33;2.80;;;;;;;15.23;66.22;101974.59;5069945;28;20405;-82
2022/05/10 02:12:16;;;;;;;4.55;3.10;;;;;;;14.89;66.18;101923.63;5067770;28;20044;-82
2022/05/10 02:15:02;;;;;;;4.07;2.65;;;;;;;15.27;66.12;101980.94;5070550;28;20041;-82
2022/05/10 02:17:34;;;;;;;3.53;2.97;;;;;;;15.23;66.05;101973.72;5068248;28;20086;-82
2022/05/10 02:20:00;;;;;;;4.38;2.65;;;;;;;15.24;66.20;101986.97;5084619;28;20486;-82
2022/05/10 02:22:31;;;;;;;3.72;2.50;;;;;;;15.19;66.04;101967.38;5069434;28;20032;-82
2022/05/10 02:25:29;;;;;;;4.13;2.88;;;;;;;15.26;66.15;101976.50;5070744;28;20035;-83
2022/05/10 02:27:59;;;;;;;4.40;3.08;;;;;;;15.25;65.88;101974.69;5050251;28;20041;-83
2022/05/10 02:30:28;;;;;;;3.80;2.90;;;;;;;15.22;66.18;101970.19;5083930;28;20568;-82
2022/05/10 02:33:08;;;;;;;3.15;2.80;;;;;;;15.22;65.90;101966.66;5068165;28;20035;-82
2022/05/10 02:35:40;;;;;;;3.50;2.60;;;;;;;15.20;66.21;101974.47;5067637;28;20028;-81
2022/05/10 02:38:06;;;;;;;4.15;2.60;;;;;;;15.19;66.17;101977.91;5067010;28;20524;-81
2022/05/10 02:40:32;;;;;;;4.50;2.75;;;;;;;15.20;66.04;101979.72;5068060;28;20089;-81
2022/05/10 02:42:59;;;;;;;5.05;2.80;;;;;;;15.19;66.19;101977.00;5068816;28;20024;-81
2022/05/10 02:45:25;;;;;;;4.28;2.65;;;;;;;15.14;66.34;101963.59;5069568;28;20072;-81
2022/05/10 02:47:51;;;;;;;5.78;2.95;;;;;;;15.17;66.29;101976.91;5068949;28;20020;-81
2022/05/10 02:50:29;;;;;;;3.00;2.60;;;;;;;15.12;66.38;101965.25;5069534;28;20407;-81
2022/05/10 02:52:55;;;;;;;3.25;2.65;;;;;;;15.13;66.35;101967.03;5068650;28;20065;-81
2022/05/10 02:55:32;;;;;;;5.75;2.88;;;;;;;15.17;66.13;101971.63;5071478;28;20020;-81
2022/05/10 02:58:00;;;;;;;4.00;2.90;;;;;;;15.03;66.24;101959.47;5033523;28;20037;-81
2022/05/10 03:00:26;;;;;;;3.35;2.80;;;;;;;15.15;66.16;101981.19;5062423;28;20033;-81
2022/05/10 03:02:54;;;;;;;3.45;2.70;;;;;;;15.10;66.40;101979.13;5069932;28;20033;-81
2022/05/10 03:05:20;;;;;;;3.55;2.80;;;;;;;15.12;66.14;101981.03;5066125;28;20090;-82
2022/05/10 03:07:45;;;;;;;3.45;2.90;;;;;;;15.06;66.25;101975.41;5069227;28;20032;-82
2022/05/10 03:10:12;;;;;;;4.75;2.53;;;;;;;15.12;66.21;101986.28;5069783;28;20064;-83
2022/05/10 03:12:37;;;;;;;3.63;2.78;;;;;;;15.11;66.26;101987.09;5068408;28;20076;-82
2022/05/10 03:15:04;;;;;;;3.40;2.45;;;;;;;15.04;66.24;101975.34;5071038;28;20052;-82
2022/05/10 03:17:30;;;;;;;5.50;2.80;;;;;;;15.10;66.24;101985.28;5069829;28;20486;-83
2022/05/10 03:19:55;;;;;;;5.57;3.03;;;;;;;15.02;66.24;101976.06;5068780;28;20131;-82
2022/05/10 03:22:21;;;;;;;3.75;2.75;;;;;;;15.10;66.33;101995.81;5070088;28;20032;-81
2022/05/10 03:24:47;;;;;;;2.97;2.50;;;;;;;15.11;66.21;101999.34;5067571;28;20036;-81
2022/05/10 03:27:13;;;;;;;5.55;2.90;;;;;;;15.07;66.45;101993.03;5069992;28;20482;-82
2022/05/10 03:29:40;;;;;;;3.60;2.90;;;;;;;15.07;66.33;102001.81;5085330;28;20036;-81
2022/05/10 03:32:07;;;;;;;5.32;2.88;;;;;;;15.07;66.20;101993.94;5069899;28;20101;-81
2022/05/10 03:37:16;;;;;;;3.33;2.90;;;;;;;14.97;66.34;101994.25;5069137;28;20036;-82
2022/05/10 03:39:42;;;;;;;4.45;2.50;;;;;;;14.99;66.34;102002.22;5072596;28;20029;-82
2022/05/10 03:42:09;;;;;;;3.10;2.70;;;;;;;14.90;66.27;101988.53;5071919;28;20029;-82
2022/05/10 03:44:37;;;;;;;4.07;3.05;;;;;;;15.02;66.22;102010.28;5056093;28;20028;-82
2022/05/10 03:47:04;;;;;;;4.30;2.78;;;;;;;14.99;66.22;102011.00;5073493;28;20024;-82
2022/05/10 03:49:29;;;;;;;4.63;3.08;;;;;;;14.96;66.24;102009.94;5071355;28;20486;-81
2022/05/10 03:51:55;;;;;;;3.72;2.85;;;;;;;14.99;66.15;102018.00;5073981;28;20024;-81
2022/05/10 03:54:25;;;;;;;3.95;3.03;;;;;;;14.98;65.99;102019.72;5072868;28;20032;-81
2022/05/10 03:56:51;;;;;;;5.45;3.20;;;;;;;15.00;66.13;102019.81;5072634;28;20409;-81
2022/05/10 03:59:18;;;;;;;5.07;3.03;;;;;;;14.97;65.74;102019.66;5073510;28;20017;-81
2022/05/10 04:01:44;;;;;;;3.53;2.72;;;;;;;14.91;65.98;102017.56;5070438;28;20162;-81
2022/05/10 04:04:10;;;;;;;5.35;2.80;;;;;;;14.97;65.95;102027.53;5073186;28;20469;-81
2022/05/10 04:06:36;;;;;;;5.55;3.30;;;;;;;14.95;66.05;102023.91;5072054;28;20063;-81
2022/05/10 04:09:03;;;;;;;3.00;2.58;;;;;;;14.93;65.92;102022.91;5071849;28;20482;-84
2022/05/10 04:11:29;;;;;;;6.00;2.80;;;;;;;14.93;66.33;102025.56;5072458;28;20041;-84
2022/05/10 04:13:54;;;;;;;4.03;3.03;;;;;;;14.92;66.51;102024.66;5067900;28;20029;-84
2022/05/10 04:16:20;;;;;;;5.60;3.05;;;;;;;14.72;66.01;101994.56;5066621;28;20085;-84
2022/05/10 04:18:46;;;;;;;4.25;2.95;;;;;;;14.88;66.24;102027.00;5070922;28;20085;-84
2022/05/10 04:21:12;;;;;;;4.72;3.00;;;;;;;14.75;66.36;102007.91;5067471;28;20029;-84
2022/05/10 04:23:37;;;;;;;3.78;2.75;;;;;;;14.84;66.20;102025.94;5060391;28;20490;-85
2022/05/10 04:26:04;;;;;;;4.85;3.05;;;;;;;14.90;66.08;102036.81;5070755;28;20067;-84
2022/05/10 04:28:31;;;;;;;4.43;2.80;;;;;;;14.86;66.11;102027.84;5088785;28;20024;-85
2022/05/10 04:30:57;;;;;;;4.93;2.83;;;;;;;14.68;66.31;101999.59;5070424;28;20517;-85
2022/05/10 04:33:22;;;;;;;4.38;2.85;;;;;;;14.81;66.37;102024.00;5073869;28;20025;-85
2022/05/10 04:35:48;;;;;;;6.53;3.15;;;;;;;14.84;66.51;102032.09;5071545;28;20033;-85
2022/05/10 04:38:14;;;;;;;5.45;3.17;;;;;;;14.74;66.30;102007.81;5073602;28;20025;-84
2022/05/10 04:43:23;;;;;;;4.38;2.95;;;;;;;14.74;66.38;102013.97;5071907;28;20129;-84
2022/05/10 04:45:49;;;;;;;4.97;3.05;;;;;;;14.44;66.09;101963.16;5072597;28;20104;-84
2022/05/10 04:48:14;;;;;;;5.85;3.05;;;;;;;14.73;66.35;102030.59;5072213;28;20391;-85
2022/05/10 04:50:46;;;;;;;4.82;3.30;;;;;;;14.71;66.48;102011.19;5067371;28;20060;-86
2022/05/10 04:53:12;;;;;;;5.05;2.97;;;;;;;14.59;66.08;101994.72;5051696;28;20036;-84
2022/05/10 04:55:37;;;;;;;5.00;2.83;;;;;;;14.37;66.54;101971.47;5053979;28;20025;-84
2022/05/10 04:58:03;;;;;;;6.43;2.88;;;;;;;14.74;66.29;102026.22;5056467;28;20112;-84
2022/05/10 05:00:30;;;;;;;3.13;2.80;;;;;;;14.68;66.62;102008.38;5058743;28;20021;-83
2022/05/10 05:02:56;;;;;;;5.20;3.33;;;;;;;14.59;66.85;102006.13;5061180;28;20021;-83
2022/05/10 05:05:21;;;;;;;5.03;3.22;;;;;;;14.73;66.69;102022.69;5055036;28;20032;-84
2022/05/10 05:07:47;;;;;;;5.32;3.33;;;;;;;14.79;66.58;102024.75;5057935;28;20036;-84
2022/05/10 05:10:13;;;;;;;5.97;3.30;;;;;;;14.75;66.45;102033.28;5065181;28;20028;-84
2022/05/10 05:12:39;;;;;;;4.50;2.90;;;;;;;14.63;66.60;102013.38;5050501;28;20045;-84
2022/05/10 05:15:07;;;;;;;4.00;3.10;;;;;;;14.72;66.55;102025.22;5069658;28;20064;-84
2022/05/10 05:17:33;;;;;;;4.75;3.20;;;;;;;14.72;66.38;102030.50;5061854;28;20055;-85
2022/05/10 05:19:58;;;;;;;4.43;3.17;;;;;;;14.57;66.72;102010.38;5065959;28;20064;-85
2022/05/10 05:22:26;;;;;;;3.90;3.13;;;;;;;14.65;66.50;102014.38;5067766;28;20110;-85
2022/05/10 05:24:52;;;;;;;4.97;3.30;;;;;;;14.48;66.52;101996.69;5058353;28;20086;-85
2022/05/10 05:27:19;;;;;;;6.20;3.05;;;;;;;14.70;66.42;102034.75;5055640;28;20025;-84
2022/05/10 05:29:44;;;;;;;5.75;3.35;;;;;;;14.60;66.52;102025.41;5064871;28;20032;-84
2022/05/10 05:32:10;;;;;;;5.28;3.47;;;;;;;14.65;66.34;102031.88;5072456;28;20040;-84
2022/05/10 05:34:36;;;;;;;5.75;3.30;;;;;;;14.52;66.29;102011.81;5071513;28;20606;-83
2022/05/10 05:39:47;;;;;;;5.35;3.03;;;;;;;14.67;66.56;102035.50;5056217;28;20563;-83
2022/05/10 05:42:13;;;;;;;5.50;3.20;;;;;;;14.64;66.52;102033.56;5052098;28;20021;-83
2022/05/10 05:44:38;;;;;;;4.95;3.30;;;;;;;14.57;66.39;102023.53;5051949;28;20459;-82
2022/05/10 05:47:04;;;;;;;5.95;3.33;;;;;;;14.67;66.18;102048.63;5052912;28;20039;-83
2022/05/10 05:49:30;;;;;;;4.65;3.28;;;;;;;14.70;66.18;102046.19;5050720;28;20410;-83
2022/05/10 05:51:57;;;;;;;5.43;3.45;;;;;;;14.58;66.62;102042.81;5051138;28;20478;-83
2022/05/10 05:54:23;;;;;;;4.07;3.00;;;;;;;14.72;66.44;102046.28;5050716;28;20572;-84
2022/05/10 05:56:49;;;;;;;5.40;2.97;;;;;;;14.60;67.12;102054.34;5059343;28;20070;-84
2022/05/10 05:59:14;;;;;;;5.88;3.25;;;;;;;14.55;66.40;102012.00;5069708;28;20116;-85
2022/05/10 06:01:40;;;;;;;4.60;3.10;;;;;;;14.66;66.66;102044.19;5068573;28;20040;-84
2022/05/10 06:04:05;;;;;;;3.58;3.05;;;;;;;14.54;66.61;102035.53;5067126;28;20493;-84
2022/05/10 06:06:31;;;;;;;6.20;3.40;;;;;;;14.47;66.75;102034.28;5067628;28;20102;-84
2022/05/10 06:08:57;;;;;;;5.25;3.20;;;;;;;14.43;66.79;102027.97;5071135;28;20548;-85
2022/05/10 06:11:22;;;;;;;5.35;3.22;;;;;;;14.53;66.79;102045.16;5071854;28;20080;-86
2022/05/10 06:13:48;;;;;;;6.40;3.10;;;;;;;14.36;67.07;102022.25;5066186;28;21812;-88
2022/05/10 06:16:16;;;;;;;4.38;3.00;;;;;;;14.35;66.99;102021.34;5064472;28;20032;-86
2022/05/10 06:18:42;;;;;;;4.47;3.25;;;;;;;14.13;67.27;101990.25;5053316;28;20029;-87
2022/05/10 06:21:08;;;;;;;5.38;3.47;;;;;;;14.34;66.94;102016.91;5051915;28;20036;-86
2022/05/10 06:23:34;;;;;;;5.05;3.03;;;;;;;14.39;66.89;102017.16;5056785;28;20059;-86
2022/05/10 06:25:59;;;;;;;4.75;2.95;;;;;;;14.49;67.15;102045.78;5069587;28;20074;-87
2022/05/10 06:28:25;;;;;;;4.95;2.85;;;;;;;14.46;67.22;102048.25;5067906;28;20048;-86
2022/05/10 06:30:50;;;;;;;4.70;3.08;;;;;;;14.24;67.09;102007.59;5058885;28;20772;-86
2022/05/10 06:33:16;;;;;;;4.50;3.45;;;;;;;14.42;67.32;102041.00;5063890;28;20490;-87
2022/05/10 06:35:44;;;;;;;4.55;3.28;;;;;;;14.43;67.17;102042.81;5070869;28;20032;-86
2022/05/10 06:38:16;;;;;;;5.05;3.40;;;;;;;14.57;67.24;102065.59;5067689;28;20036;-85
2022/05/10 06:40:43;;;;;;;5.28;3.22;;;;;;;14.52;66.97;102053.88;5070250;28;20482;-85
2022/05/10 06:43:09;;;;;;;4.32;3.28;;;;;;;14.38;67.41;102042.53;5067678;28;20405;-85
2022/05/10 06:45:35;;;;;;;3.53;2.83;;;;;;;14.56;67.16;102063.78;5066495;28;20153;-85
2022/05/10 06:48:01;;;;;;;;;;;;;;;14.57;67.41;102076.09;5066745;28;20062;-85
2022/05/10 06:50:28;;;;;;;5.35;3.03;;;;;;;14.44;67.30;102042.00;5069541;28;19916;-85
2022/05/10 06:52:59;;;;;;;5.10;3.20;;;;;;;14.42;67.52;102055.03;5052519;28;20059;-85
2022/05/10 06:55:30;;;;;;;4.78;3.38;;;;;;;14.53;67.81;102070.53;5068892;28;20815;-85
2022/05/10 06:57:56;;;;;;;4.10;2.90;;;;;;;14.37;67.63;102056.50;5070281;28;20473;-85
2022/05/10 07:00:22;;;;;;;4.45;3.00;;;;;;;14.49;67.64;102073.81;5052795;28;20025;-85
2022/05/10 07:02:48;;;;;;;5.03;3.10;;;;;;;14.12;67.72;102017.38;5070865;28;20032;-84
2022/05/10 07:05:16;;;;;;;3.72;2.95;;;;;;;14.35;67.78;102065.09;5071338;28;20028;-85
2022/05/10 07:07:42;;;;;;;4.72;3.20;;;;;;;14.15;67.79;102035.91;5069844;28;20032;-85
2022/05/10 07:10:10;;;;;;;5.22;3.00;;;;;;;14.41;67.67;102073.34;5071765;28;20103;-84
2022/05/10 07:12:37;;;;;;;5.43;3.25;;;;;;;14.43;68.04;102080.53;5094965;28;20124;-85
2022/05/10 07:15:04;;;;;;;5.80;3.22;;;;;;;14.39;68.18;102081.16;5081712;28;20031;-85
2022/05/10 07:17:30;;;;;;;5.13;3.00;;;;;;;14.19;68.14;102039.66;5086944;28;20029;-85
2022/05/10 07:19:57;;;;;;;4.97;3.15;;;;;;;14.40;67.92;102072.44;5079438;28;20552;-85
2022/05/10 07:22:22;;;;;;;5.72;3.13;;;;;;;14.23;68.17;102039.91;5074159;28;20040;-84
2022/05/10 07:24:48;;;;;;;6.45;3.00;;;;;;;14.43;68.02;102080.53;5075397;28;20033;-85
2022/05/10 07:27:13;;;;;;;5.97;2.97;;;;;;;14.20;68.11;102038.81;5073063;28;20037;-85
2022/05/10 07:29:39;;;;;;;4.80;3.08;;;;;;;14.31;67.74;102064.03;5072084;28;20413;-84
2022/05/10 07:32:05;;;;;;;4.70;3.17;;;;;;;14.48;68.10;102093.94;5073682;28;20429;-84
2022/05/10 07:34:31;;;;;;;4.22;3.42;;;;;;;14.42;68.22;102091.84;5071714;28;20470;-84
2022/05/10 07:36:56;;;;;;;5.95;3.05;;;;;;;14.51;68.08;102093.22;5073618;28;20038;-85
2022/05/10 07:39:23;;;;;;;4.40;3.15;;;;;;;14.40;68.14;102079.44;5072154;28;20099;-85
2022/05/10 07:41:51;;;;;;;5.53;3.15;;;;;;;14.42;68.13;102091.84;5067863;28;20051;-85
2022/05/10 07:44:17;;;;;;;4.82;3.03;;;;;;;14.44;68.31;102099.81;5072298;28;20093;-85
2022/05/10 07:46:43;;;;;;;4.78;3.20;;;;;;;14.51;68.23;102103.72;5073567;28;20482;-85
2022/05/10 07:49:08;;;;;;;3.92;3.05;;;;;;;14.52;68.49;102108.16;5067046;28;20127;-85
2022/05/10 07:51:35;;;;;;;4.45;3.03;;;;;;;14.48;68.33;102096.56;5052535;28;20123;-84
2022/05/10 07:54:01;;;;;;;5.93;3.50;;;;;;;14.44;68.32;102091.94;5069009;28;20118;-84
2022/05/10 07:56:26;;;;;;;5.30;3.20;;;;;;;14.48;68.38;102095.63;5054563;28;20487;-88
2022/05/10 07:58:53;;;;;;;4.43;3.13;;;;;;;14.59;68.42;102115.63;5077419;28;20031;-84
2022/05/10 08:01:19;;;;;;;5.38;2.90;;;;;;;14.43;68.36;102084.84;5072654;28;20119;-85
2022/05/10 08:03:46;;;;;;;4.20;3.00;;;;;;;14.60;68.30;102101.66;5071601;28;20025;-84
2022/05/10 08:06:11;;;;;;;6.18;3.15;;;;;;;14.48;68.02;102088.69;5071569;28;20078;-84
2022/05/10 08:08:37;;;;;;;5.30;3.53;;;;;;;14.55;68.05;102096.13;5071166;28;20044;-84
2022/05/10 08:11:04;;;;;;;4.65;3.47;;;;;;;14.69;68.01;102110.13;5070745;28;20047;-85
2022/05/10 08:13:31;;;;;;;5.20;3.10;;;;;;;14.68;67.90;102102.13;5072870;28;20032;-85
2022/05/10 08:15:57;;;;;;;5.50;3.60;;;;;;;14.45;67.79;102056.94;5073913;28;20024;-84
2022/05/10 08:18:25;;;;;;;5.47;3.30;;;;;;;14.74;68.17;102110.38;5072982;28;20063;-84
2022/05/10 08:20:52;;;;;;;4.93;3.35;;;;;;;14.78;68.04;102101.84;5089693;28;20029;-84
2022/05/10 08:23:24;;;;;;;6.13;3.28;;;;;;;14.79;68.03;102103.66;5072424;28;20020;-84
2022/05/10 08:25:51;;;;;;;4.75;3.08;;;;;;;14.71;68.11;102089.13;5073263;28;20032;-84
2022/05/10 08:28:17;;;;;;;4.97;3.38;;;;;;;14.66;67.69;102078.34;5067570;28;20521;-84
2022/05/10 08:30:46;;;;;;;4.05;3.28;;;;;;;14.80;67.75;102106.38;5061397;28;20116;-84
2022/05/10 08:33:17;;;;;;;5.40;3.83;;;;;;;14.81;67.96;102099.38;5069825;28;20032;-84
2022/05/10 08:35:42;;;;;;;6.10;3.60;;;;;;;14.83;67.83;102096.03;5069400;28;20032;-84
2022/05/10 08:38:08;;;;;;;4.72;3.40;;;;;;;14.85;67.82;102097.00;5074004;28;20021;-84
2022/05/10 08:40:59;;;;;;;6.47;3.63;;;;;;;14.88;67.81;102103.28;5070371;28;20044;-84
2022/05/10 08:43:32;;;;;;;5.50;3.72;;;;;;;14.84;68.07;102099.59;5063133;28;20051;-83
2022/05/10 08:45:58;;;;;;;5.80;3.83;;;;;;;14.80;68.43;102102.84;5071573;28;20025;-84
2022/05/10 08:48:26;;;;;;;5.55;4.18;;;;;;;14.74;68.50;102098.13;5064170;28;20032;-84
2022/05/10 08:50:52;;;;;;;5.78;4.03;;;;;;;14.86;68.10;102093.59;5068264;28;20057;-84
2022/05/10 08:53:17;;;;;;;5.35;3.78;;;;;;;14.81;68.32;102108.16;5066286;28;20231;-84
2022/05/10 08:55:48;;;;;;;5.55;3.78;;;;;;;14.77;68.44;102103.53;5052055;28;20025;-84
2022/05/10 08:58:26;;;;;;;5.15;3.65;;;;;;;14.82;68.38;102096.84;5069231;28;20751;-84
2022/05/10 09:00:52;;;;;;;6.32;3.95;;;;;;;14.83;68.30;102101.28;5053116;28;20536;-84
2022/05/10 09:03:34;;;;;;;6.72;3.92;;;;;;;14.88;68.31;102100.63;5051904;28;20032;-84
2022/05/10 09:06:26;;;;;;;6.70;4.03;;;;;;;14.83;68.70;102105.63;5052074;28;20025;-84
2022/05/10 09:09:07;;;;;;;6.25;3.88;;;;;;;14.81;68.61;102099.38;5052909;28;20036;-84
2022/05/10 09:11:43;;;;;;;6.45;4.57;;;;;;;14.69;68.54;102078.56;5052991;28;20049;-84
2022/05/10 09:14:09;;;;;;;6.28;4.30;;;;;;;14.81;68.57;102096.75;5068583;28;20032;-84
2022/05/10 09:16:35;;;;;;;7.45;4.47;;;;;;;14.78;68.56;102088.69;5068543;28;20057;-83
2022/05/10 09:19:01;;;;;;;5.65;3.92;;;;;;;14.76;68.52;102085.97;5068615;28;20048;-83
2022/05/10 09:21:31;;;;;;;7.82;4.75;;;;;;;14.82;68.29;102086.34;5052636;28;20025;-84
2022/05/10 09:24:29;;;;;;;7.80;4.40;;;;;;;14.85;68.63;102088.22;5067098;28;20402;-84
2022/05/10 09:27:05;;;;;;;5.13;3.83;;;;;;;14.75;68.74;102081.56;5067129;28;20108;-84
2022/05/10 09:29:46;;;;;;;7.22;4.68;;;;;;;14.60;68.98;102065.75;5067457;28;20027;-84
2022/05/10 09:35:00;;;;;;;7.00;4.50;;;;;;;14.70;69.24;102072.47;5052107;28;20048;-84
2022/05/10 09:37:37;;;;;;;8.20;4.85;;;;;;;14.65;69.41;102072.19;5050777;28;20102;-84
2022/05/10 09:40:17;;;;;;;6.72;4.97;;;;;;;14.74;69.40;102084.97;5050661;28;20024;-84
2022/05/10 09:42:49;;;;;;;7.05;4.35;;;;;;;14.68;69.34;102067.94;5051990;28;20226;-84
2022/05/10 09:45:26;;;;;;;5.65;4.18;;;;;;;14.73;69.36;102088.44;5050722;28;20402;-84
2022/05/10 09:48:00;;;;;;;6.28;4.88;;;;;;;14.73;69.42;102080.56;5050451;28;20025;-84
2022/05/10 09:50:29;;;;;;;6.85;4.80;;;;;;;14.75;69.42;102084.19;5050518;28;20028;-83
2022/05/10 09:53:14;;;;;;;7.05;4.80;;;;;;;14.75;69.37;102076.28;5050352;28;20024;-85
2022/05/10 09:55:50;;;;;;;6.90;4.68;;;;;;;14.71;69.47;102073.38;5051283;28;20021;-84
2022/05/10 09:58:19;;;;;;;6.25;4.80;;;;;;;14.64;69.37;102059.84;5050359;28;20032;-83
2022/05/10 10:00:52;;;;;;;7.13;4.57;;;;;;;14.72;69.33;102067.31;5051606;28;20029;-84
2022/05/10 10:03:28;;;;;;;7.78;4.82;;;;;;;14.79;69.49;102072.09;5066611;28;20078;-84
2022/05/10 10:05:56;;;;;;;6.70;4.73;;;;;;;14.58;69.46;102032.31;5066689;28;20021;-84
2022/05/10 10:08:43;;;;;;;8.23;4.90;;;;;;;14.75;69.63;102065.78;5051476;28;20279;-84
2022/05/10 10:11:22;;;;;;;6.82;5.22;;;;;;;14.76;69.40;102069.28;5050442;28;20055;-84
2022/05/10 10:14:08;;;;;;;7.47;4.82;;;;;;;14.72;69.75;102059.41;5051509;28;20040;-84
2022/05/10 10:16:41;;;;;;;6.85;5.10;;;;;;;14.75;69.42;102047.38;5066946;28;20559;-84
2022/05/10 10:19:29;;;;;;;7.28;4.90;;;;;;;14.80;69.42;102051.16;5051502;28;20071;-84
2022/05/10 10:22:14;;;;;;;7.10;4.72;;;;;;;14.76;69.64;102043.00;5050471;28;20127;-84
2022/05/10 10:24:47;;;;;;;8.82;4.82;;;;;;;14.71;69.38;102033.91;5050295;28;20031;-84
2022/05/10 10:27:23;;;;;;;7.43;5.18;;;;;;;14.78;69.31;102044.88;5051340;28;20036;-84
2022/05/10 10:30:04;;;;;;;9.00;5.45;;;;;;;14.88;69.24;102056.84;5066569;28;20025;-84
2022/05/10 10:32:47;;;;;;;6.95;5.10;;;;;;;14.80;69.19;102037.09;5066862;28;20103;-84
2022/05/10 10:35:30;;;;;;;10.27;5.60;;;;;;;14.85;69.27;102051.41;5066430;28;20047;-84
2022/05/10 10:38:25;;;;;;;7.78;5.05;;;;;;;14.90;69.27;102051.66;5067073;28;20043;-84
2022/05/10 10:41:04;;;;;;;8.13;4.93;;;;;;;14.89;69.31;102056.03;5049870;28;20055;-84
2022/05/10 10:43:41;;;;;;;9.35;5.35;;;;;;;14.93;69.43;102052.75;5066913;28;20021;-84
2022/05/10 10:46:33;;;;;;;6.80;4.97;;;;;;;14.96;69.37;102047.66;5049650;28;20574;-84
2022/05/10 10:49:13;;;;;;;7.82;5.50;;;;;;;14.82;69.12;102028.47;5051004;28;20020;-84
2022/05/10 10:51:39;;;;;;;9.02;5.15;;;;;;;14.90;69.02;102028.91;5066420;28;20056;-84
2022/05/10 10:54:09;;;;;;;7.25;5.05;;;;;;;14.94;68.93;102035.25;5060324;28;20387;-84
2022/05/10 10:57:13;;;;;;;6.30;4.70;;;;;;;15.00;68.88;102046.09;5067619;28;20119;-84
2022/05/10 11:00:21;;;;;;;7.57;5.30;;;;;;;15.01;68.74;102035.69;5027927;28;20541;-84
2022/05/10 11:03:09;;;;;;;8.30;5.07;;;;;;;15.04;68.60;102040.19;4988372;28;20033;-84
2022/05/10 11:06:00;;;;;;;9.30;5.20;;;;;;;15.07;68.67;102043.91;5041666;28;20702;-84
2022/05/10 11:09:04;;;;;;;7.97;5.13;;;;;;;15.13;68.47;102043.34;5045908;28;20032;-84
2022/05/10 11:11:51;;;;;;;7.00;4.82;;;;;;;15.18;68.45;102033.09;5050975;28;20048;-84
2022/05/10 11:14:38;;;;;;;7.82;4.82;;;;;;;15.15;68.28;102032.91;5070889;28;20032;-83
2022/05/10 11:17:07;;;;;;;7.05;5.05;;;;;;;15.21;68.06;102031.50;5069725;28;20568;-84
2022/05/10 11:20:06;;;;;;;8.38;5.25;;;;;;;15.26;67.82;102030.06;5070824;28;20094;-84
2022/05/10 11:22:42;;;;;;;9.43;5.40;;;;;;;15.26;67.94;102037.97;5071218;28;20060;-84
2022/05/10 11:25:33;;;;;;;7.18;5.03;;;;;;;15.25;68.05;102016.81;5069868;28;20398;-84
2022/05/10 11:28:37;;;;;;;6.57;4.72;;;;;;;15.16;67.82;102003.16;5070894;28;20542;-84
2022/05/10 11:31:23;;;;;;;6.60;4.90;;;;;;;15.25;67.90;102027.34;5068504;28;20040;-84
2022/05/10 11:34:07;;;;;;;6.75;4.88;;;;;;;15.09;67.68;101979.94;5070781;28;20099;-84
2022/05/10 11:36:44;;;;;;;6.00;4.90;;;;;;;15.24;67.67;101993.97;5069472;28;20029;-84
2022/05/10 11:39:31;;;;;;;7.07;5.10;;;;;;;15.32;67.80;102011.06;5070795;28;20029;-83
2022/05/10 11:42:09;;;;;;;6.75;4.72;;;;;;;15.30;68.01;102012.69;5070375;28;20094;-84
2022/05/10 11:44:56;;;;;;;8.40;5.28;;;;;;;15.34;67.67;102001.50;5070816;28;20055;-84
2022/05/10 11:47:49;;;;;;;5.32;4.43;;;;;;;15.26;67.83;101995.84;5069286;28;20094;-84
2022/05/10 11:50:32;;;;;;;9.52;5.10;;;;;;;15.36;67.53;102005.13;5070488;28;20032;-84
2022/05/10 11:53:16;;;;;;;6.28;4.32;;;;;;;15.34;67.94;102005.88;5069300;28;20032;-84